Time;durP1;ratioP1;P1;durP2;ratioP2;P2;SDS_P1;SDS_P2;PMS_P1;PMS_P2;Temp;Humidity;BMP_temperature;BMP_pressure;BME280_temperature;BME280_humidity;BME280_pressure;Samples;Min_cycle;Max_cycle;Signal;HPM_P1;HPM_P2
2023/12/19 00:01:48;;;;;;;65.35;62.05;;;;;;;8.61;67.11;102496.56;5022220;28;20453;-70
2023/12/19 00:04:14;;;;;;;76.53;71.22;;;;;;;8.63;66.93;102491.81;5017654;28;20529;-73
2023/12/19 00:06:39;;;;;;;66.78;63.17;;;;;;;8.63;67.08;102486.44;5018670;28;20037;-71
2023/12/19 00:09:05;;;;;;;68.47;64.53;;;;;;;8.63;66.97;102472.13;5011599;28;20494;-72
2023/12/19 00:11:30;;;;;;;69.85;66.03;;;;;;;8.62;66.86;102478.56;5022249;28;20045;-72
2023/12/19 00:13:56;;;;;;;66.25;62.97;;;;;;;8.62;67.06;102478.56;5012280;28;20037;-71
2023/12/19 00:16:22;;;;;;;70.38;66.53;;;;;;;8.61;67.05;102480.41;5033882;28;20112;-71
2023/12/19 00:18:47;;;;;;;62.67;59.38;;;;;;;8.62;67.10;102476.69;5026854;28;20026;-70
2023/12/19 00:21:12;;;;;;;66.15;62.75;;;;;;;8.62;67.08;102479.38;5017567;28;20041;-70
2023/12/19 00:23:38;;;;;;;65.55;62.03;;;;;;;8.64;67.00;102473.78;5029887;28;20580;-71
2023/12/19 00:26:05;;;;;;;69.97;65.60;;;;;;;8.61;66.90;102469.63;5029661;28;20573;-72
2023/12/19 00:28:31;;;;;;;63.40;59.87;;;;;;;8.63;67.06;102466.75;5044263;28;20112;-72
2023/12/19 00:30:57;;;;;;;67.30;63.92;;;;;;;8.61;66.89;102453.47;5027892;28;20304;-71
2023/12/19 00:33:23;;;;;;;62.47;59.60;;;;;;;8.62;67.45;102451.63;5013966;28;20055;-71
2023/12/19 00:35:49;;;;;;;65.85;62.83;;;;;;;8.63;67.18;102450.59;5022385;28;20105;-71
2023/12/19 00:38:14;;;;;;;63.90;60.42;;;;;;;8.61;67.31;102450.75;5041870;28;20083;-73
2023/12/19 00:40:39;;;;;;;64.40;61.25;;;;;;;8.60;67.21;102443.72;5027567;28;20120;-71
2023/12/19 00:43:05;;;;;;;71.97;67.82;;;;;;;8.60;67.44;102432.94;5029996;28;20397;-70
2023/12/19 00:45:30;;;;;;;65.78;62.38;;;;;;;8.58;67.31;102431.47;5022002;28;20096;-73
2023/12/19 00:47:56;;;;;;;68.20;64.78;;;;;;;8.56;67.36;102426.25;5014858;28;20141;-71
2023/12/19 00:50:21;;;;;;;65.28;62.03;;;;;;;8.57;67.35;102425.25;5014830;28;20466;-70
2023/12/19 00:52:46;;;;;;;62.97;59.97;;;;;;;8.56;67.47;102420.88;5014969;28;20029;-71
2023/12/19 00:55:12;;;;;;;65.47;62.35;;;;;;;8.59;67.47;102414.25;5026543;28;20034;-72
2023/12/19 00:57:37;;;;;;;65.38;61.97;;;;;;;8.59;67.33;102408.88;5033237;28;20025;-71
2023/12/19 01:00:03;;;;;;;64.35;61.25;;;;;;;8.59;67.39;102409.75;5040957;28;20064;-71
2023/12/19 01:02:31;;;;;;;65.90;62.50;;;;;;;8.58;67.33;102393.75;5032619;28;20042;-72
2023/12/19 01:04:57;;;;;;;66.10;62.45;;;;;;;8.58;67.47;102391.06;5033504;28;20017;-70
2023/12/19 01:07:23;;;;;;;66.32;62.53;;;;;;;8.58;67.47;102375.72;5016478;28;20394;-70
2023/12/19 01:09:48;;;;;;;65.15;62.13;;;;;;;8.58;67.58;102378.41;5034271;28;20029;-70
2023/12/19 01:12:14;;;;;;;73.68;69.53;;;;;;;8.59;67.29;102377.41;5032502;28;20040;-70
2023/12/19 01:14:40;;;;;;;67.15;63.55;;;;;;;8.58;67.42;102383.81;5031315;28;20041;-71
2023/12/19 01:17:05;;;;;;;66.90;63.05;;;;;;;8.59;67.34;102395.41;5031748;28;20112;-70
2023/12/19 01:19:30;;;;;;;65.82;62.67;;;;;;;8.60;67.24;102383.63;5035586;28;20025;-70
2023/12/19 01:21:56;;;;;;;70.28;66.45;;;;;;;8.58;67.51;102377.59;5036138;28;20399;-71
2023/12/19 01:24:21;;;;;;;68.45;64.25;;;;;;;8.58;67.45;102386.50;5032452;28;20393;-72
2023/12/19 01:26:49;;;;;;;72.05;67.88;;;;;;;8.59;67.50;102390.88;5033627;28;20029;-71
2023/12/19 01:29:15;;;;;;;67.13;63.83;;;;;;;8.59;67.45;102384.63;5028407;28;20046;-71
2023/12/19 01:31:40;;;;;;;64.57;61.08;;;;;;;8.58;67.72;102391.88;5015094;28;20493;-71
2023/12/19 01:34:06;;;;;;;64.32;60.92;;;;;;;8.60;67.39;102391.72;5015193;28;20038;-71
2023/12/19 01:36:31;;;;;;;68.38;64.63;;;;;;;8.60;67.39;102389.84;5026462;28;20030;-72
2023/12/19 01:38:56;;;;;;;66.50;63.10;;;;;;;8.61;67.30;102396.88;5014056;28;20026;-72
2023/12/19 01:41:22;;;;;;;66.00;62.80;;;;;;;8.60;67.51;102380.94;5030385;28;20136;-71
2023/12/19 01:43:48;;;;;;;69.78;65.80;;;;;;;8.59;67.55;102374.72;5020616;28;20080;-71
2023/12/19 01:46:16;;;;;;;68.85;65.13;;;;;;;8.59;67.29;102376.56;5013705;28;20435;-70
2023/12/19 01:48:41;;;;;;;70.97;66.97;;;;;;;8.60;67.36;102367.47;5014359;28;20025;-72
2023/12/19 01:51:08;;;;;;;64.70;61.63;;;;;;;8.59;67.40;102372.03;5031474;28;20651;-73
2023/12/19 01:53:34;;;;;;;66.50;62.67;;;;;;;8.60;67.38;102364.78;5024015;28;20038;-71
2023/12/19 01:56:01;;;;;;;63.85;60.00;;;;;;;8.60;67.23;102375.56;5013912;28;20041;-71
2023/12/19 01:58:29;;;;;;;67.82;64.32;;;;;;;8.60;67.61;102375.56;5013347;28;20053;-71
2023/12/19 02:00:55;;;;;;;70.23;66.13;;;;;;;8.60;67.44;102376.38;5017264;28;20060;-72
2023/12/19 02:03:20;;;;;;;70.45;66.72;;;;;;;8.59;67.33;102355.88;5023190;28;20065;-72
2023/12/19 02:05:49;;;;;;;70.60;66.82;;;;;;;8.60;67.41;102354.00;5030446;28;20031;-71
2023/12/19 02:08:15;;;;;;;73.80;69.68;;;;;;;8.59;67.66;102360.41;5030786;28;20041;-71
2023/12/19 02:10:41;;;;;;;70.47;66.68;;;;;;;8.56;67.59;102345.44;5031571;28;20424;-70
2023/12/19 02:13:07;;;;;;;74.53;70.60;;;;;;;8.57;67.56;102349.81;5033424;28;20033;-71
2023/12/19 02:15:33;;;;;;;65.20;62.17;;;;;;;8.57;67.57;102339.06;5030301;28;20061;-70
2023/12/19 02:18:12;;;;;;;65.13;61.25;;;;;;;8.57;67.54;102330.16;5032243;28;20102;-70
2023/12/19 02:20:38;;;;;;;63.63;60.40;;;;;;;8.58;67.57;102329.94;5032019;28;20431;-71
2023/12/19 02:23:03;;;;;;;61.70;58.60;;;;;;;8.59;67.63;102328.94;5022899;28;20462;-71
2023/12/19 02:25:29;;;;;;;68.65;64.40;;;;;;;8.60;67.52;102327.06;5030886;28;20029;-72
2023/12/19 02:27:55;;;;;;;64.78;61.47;;;;;;;8.61;67.47;102332.25;5023474;28;20501;-71
2023/12/19 02:30:20;;;;;;;67.80;64.30;;;;;;;8.61;67.56;102326.03;5030583;28;20460;-71
2023/12/19 02:32:47;;;;;;;69.38;65.55;;;;;;;8.61;67.53;102323.34;5030136;28;20450;-71
2023/12/19 02:35:13;;;;;;;67.47;63.30;;;;;;;8.59;67.38;102320.00;5013870;28;20046;-73
2023/12/19 02:37:38;;;;;;;65.43;62.22;;;;;;;8.59;67.38;102333.47;5013254;28;20040;-71
2023/12/19 02:40:04;;;;;;;67.80;63.72;;;;;;;8.59;67.66;102323.53;5013396;28;20364;-70
2023/12/19 02:42:29;;;;;;;71.25;67.07;;;;;;;8.59;67.72;102312.78;5012870;28;20037;-70
2023/12/19 02:44:55;;;;;;;67.90;64.32;;;;;;;8.58;67.70;102319.16;5031522;28;20504;-72
2023/12/19 02:47:20;;;;;;;65.93;62.58;;;;;;;8.59;67.69;102311.91;5008654;28;20111;-71
2023/12/19 02:49:46;;;;;;;61.05;58.15;;;;;;;8.59;67.92;102302.00;5015294;28;20398;-72
2023/12/19 02:52:12;;;;;;;64.40;61.17;;;;;;;8.60;67.68;102308.22;5023061;28;20389;-72
2023/12/19 02:54:37;;;;;;;66.53;62.58;;;;;;;8.61;67.63;102299.09;5013892;28;20041;-71
2023/12/19 02:57:03;;;;;;;65.68;62.03;;;;;;;8.60;67.96;102297.44;5029453;28;20036;-72
2023/12/19 02:59:28;;;;;;;65.85;62.55;;;;;;;8.62;67.74;102300.78;5011094;28;20034;-71
2023/12/19 03:01:53;;;;;;;62.20;59.10;;;;;;;8.62;67.73;102296.22;5042072;28;20121;-71
2023/12/19 03:04:19;;;;;;;67.30;63.85;;;;;;;8.61;67.71;102299.91;5027198;28;20034;-71
2023/12/19 03:06:44;;;;;;;66.05;62.60;;;;;;;8.62;67.82;102290.00;5029108;28;20029;-71
2023/12/19 03:09:10;;;;;;;64.68;61.13;;;;;;;8.61;67.86;102272.16;5021796;28;20041;-71
2023/12/19 03:11:39;;;;;;;63.10;59.60;;;;;;;8.60;67.71;102274.03;5024526;28;20037;-71
2023/12/19 03:14:04;;;;;;;62.00;58.45;;;;;;;8.61;67.93;102259.50;5016200;28;20066;-70
2023/12/19 03:16:29;;;;;;;70.57;66.53;;;;;;;8.61;67.82;102266.78;5013847;28;20077;-72
2023/12/19 03:18:55;;;;;;;61.13;58.15;;;;;;;8.62;67.82;102265.75;5028057;28;20030;-71
2023/12/19 03:21:20;;;;;;;71.35;67.13;;;;;;;8.62;67.69;102257.69;5013743;28;20048;-72
2023/12/19 03:23:46;;;;;;;65.78;62.40;;;;;;;8.60;67.85;102247.09;5037422;28;20113;-70
2023/12/19 03:26:11;;;;;;;63.40;60.30;;;;;;;8.59;67.86;102234.66;5031676;28;20030;-71
2023/12/19 03:28:37;;;;;;;61.55;58.75;;;;;;;8.59;67.75;102231.97;5019295;28;20402;-71
2023/12/19 03:31:03;;;;;;;64.15;60.78;;;;;;;8.59;67.81;102226.56;5023420;28;20057;-71
2023/12/19 03:33:29;;;;;;;63.42;60.10;;;;;;;8.59;67.79;102229.28;5031200;28;20087;-70
2023/12/19 03:35:55;;;;;;;63.60;60.60;;;;;;;8.61;67.80;102226.38;5030636;28;20424;-72
2023/12/19 03:38:21;;;;;;;67.47;63.58;;;;;;;8.60;67.86;102217.47;5030030;28;20044;-72
2023/12/19 03:40:46;;;;;;;66.03;62.45;;;;;;;8.58;68.06;102219.50;5028860;28;20037;-72
2023/12/19 03:43:12;;;;;;;60.85;57.65;;;;;;;8.58;67.90;102216.81;5027921;28;20036;-71
2023/12/19 03:45:37;;;;;;;59.28;56.47;;;;;;;8.57;68.05;102225.94;5010406;28;20368;-72
2023/12/19 03:48:03;;;;;;;63.97;60.60;;;;;;;8.56;67.94;102212.66;5012143;28;20038;-72
2023/12/19 03:50:28;;;;;;;67.43;63.70;;;;;;;8.55;68.34;102213.69;5018550;28;20064;-72
2023/12/19 03:52:54;;;;;;;67.88;64.07;;;;;;;8.56;68.21;102197.31;4996694;28;20502;-72
2023/12/19 03:55:20;;;;;;;62.05;59.10;;;;;;;8.55;68.23;102198.34;5032334;28;20026;-73
2023/12/19 03:57:45;;;;;;;66.18;61.67;;;;;;;8.56;68.14;102188.41;5029571;28;20033;-72
2023/12/19 04:00:11;;;;;;;64.70;61.28;;;;;;;8.57;67.97;102190.09;5025073;28;20129;-72
2023/12/19 04:02:37;;;;;;;66.53;62.85;;;;;;;8.57;68.20;102188.22;5011686;28;20041;-71
2023/12/19 04:05:02;;;;;;;63.78;60.53;;;;;;;8.56;68.24;102191.94;5028988;28;20037;-73
2023/12/19 04:07:28;;;;;;;65.40;61.95;;;;;;;8.56;68.15;102185.72;5011536;28;20034;-72
2023/12/19 04:09:53;;;;;;;65.50;61.72;;;;;;;8.55;68.30;102175.97;5022188;28;20431;-72
2023/12/19 04:12:19;;;;;;;68.22;64.20;;;;;;;8.55;68.35;102175.97;5011816;28;20030;-71
2023/12/19 04:14:44;;;;;;;70.65;66.68;;;;;;;8.54;68.20;102172.47;5018261;28;20022;-71
2023/12/19 04:17:10;;;;;;;68.47;64.38;;;;;;;8.54;68.35;102171.59;5028058;28;20469;-70
2023/12/19 04:19:36;;;;;;;69.10;65.43;;;;;;;8.55;68.24;102167.91;5014321;28;20117;-71
2023/12/19 04:22:02;;;;;;;61.78;58.25;;;;;;;8.55;68.57;102165.22;5014447;28;20113;-71
2023/12/19 04:24:28;;;;;;;65.45;62.15;;;;;;;8.53;68.40;102149.22;5014691;28;20048;-72
2023/12/19 04:26:53;;;;;;;63.53;60.30;;;;;;;8.55;68.31;102160.66;5020405;28;20030;-70
2023/12/19 04:29:18;;;;;;;72.32;68.82;;;;;;;8.57;68.36;102152.38;5018085;28;20132;-71
2023/12/19 04:31:44;;;;;;;65.35;62.08;;;;;;;8.55;68.38;102144.50;5027389;28;20402;-70
2023/12/19 04:34:09;;;;;;;67.15;63.28;;;;;;;8.55;68.13;102138.28;5033026;28;20107;-70
2023/12/19 04:36:35;;;;;;;63.65;59.97;;;;;;;8.52;68.39;102136.81;5020854;28;20045;-71
2023/12/19 04:39:01;;;;;;;57.03;54.35;;;;;;;8.53;68.61;102130.38;5015403;28;20493;-71
2023/12/19 04:41:26;;;;;;;64.10;60.47;;;;;;;8.55;68.44;102138.28;5015043;28;20119;-71
2023/12/19 04:43:51;;;;;;;67.85;64.35;;;;;;;8.54;68.34;102123.13;5016911;28;20041;-71
2023/12/19 04:46:17;;;;;;;62.55;59.40;;;;;;;8.54;68.65;102118.59;5042491;28;20521;-71
2023/12/19 04:48:43;;;;;;;62.75;59.33;;;;;;;8.55;68.50;102112.16;5019379;28;20127;-72
2023/12/19 04:51:24;;;;;;;63.70;60.28;;;;;;;8.56;68.38;102111.13;5015073;28;20037;-73
2023/12/19 04:53:50;;;;;;;63.13;59.53;;;;;;;8.57;68.44;102112.00;5015305;28;20583;-72
2023/12/19 04:56:18;;;;;;;65.20;61.67;;;;;;;8.58;68.24;102113.63;5022331;28;20486;-70
2023/12/19 04:58:46;;;;;;;65.13;61.58;;;;;;;8.59;68.41;102115.28;5032863;28;20029;-71
2023/12/19 05:01:11;;;;;;;67.05;63.10;;;;;;;8.58;68.48;102109.06;5018167;28;20041;-72
2023/12/19 05:03:39;;;;;;;64.70;59.92;;;;;;;8.58;68.39;102110.94;5016440;28;20038;-71
2023/12/19 05:06:06;;;;;;;62.03;57.78;;;;;;;8.58;68.57;102113.63;5034424;28;20083;-72
2023/12/19 05:08:32;;;;;;;71.55;67.63;;;;;;;8.59;68.34;102115.28;5022668;28;20049;-70
2023/12/19 05:10:57;;;;;;;68.85;65.13;;;;;;;8.58;68.48;102097.47;5039827;28;20408;-71
2023/12/19 05:13:23;;;;;;;66.53;62.53;;;;;;;8.60;68.50;102098.13;5035735;28;20037;-71
2023/12/19 05:15:49;;;;;;;64.13;60.70;;;;;;;8.60;68.45;102088.16;4996983;28;20029;-71
2023/12/19 05:18:18;;;;;;;61.28;57.65;;;;;;;8.61;68.37;102091.69;5025474;28;20037;-71
2023/12/19 05:20:47;;;;;;;73.15;68.70;;;;;;;8.60;68.40;102090.03;5014956;28;20030;-70
2023/12/19 05:23:13;;;;;;;66.63;62.83;;;;;;;8.59;68.42;102086.53;5023252;28;20120;-71
2023/12/19 05:25:38;;;;;;;69.50;65.40;;;;;;;8.59;68.39;102089.22;5019992;28;20578;-73
2023/12/19 05:28:04;;;;;;;64.75;61.35;;;;;;;8.59;68.66;102099.13;5033613;28;20056;-72
2023/12/19 05:30:29;;;;;;;63.88;60.33;;;;;;;8.59;68.57;102097.28;5030508;28;20124;-72
2023/12/19 05:32:54;;;;;;;66.93;63.35;;;;;;;8.59;68.45;102085.66;5031009;28;20425;-71
2023/12/19 05:35:21;;;;;;;68.35;64.93;;;;;;;8.60;68.49;102082.78;5014778;28;20041;-72
2023/12/19 05:37:46;;;;;;;67.57;63.67;;;;;;;8.61;68.35;102068.28;5021482;28;20037;-71
2023/12/19 05:40:12;;;;;;;66.43;62.72;;;;;;;8.61;68.44;102060.19;5033123;28;20403;-72
2023/12/19 05:42:37;;;;;;;70.43;66.32;;;;;;;8.61;68.47;102057.50;5022349;28;20034;-71
2023/12/19 05:45:03;;;;;;;68.57;65.18;;;;;;;8.61;68.60;102043.22;5026723;28;20155;-72
2023/12/19 05:47:29;;;;;;;63.13;59.83;;;;;;;8.61;68.61;102048.59;5023613;28;20058;-70
2023/12/19 05:49:55;;;;;;;65.30;61.92;;;;;;;8.59;68.62;102056.03;5034538;28;20035;-71
2023/12/19 05:52:20;;;;;;;61.00;57.33;;;;;;;8.60;68.48;102055.84;5035477;28;20042;-71
2023/12/19 05:54:45;;;;;;;70.03;66.03;;;;;;;8.61;68.79;102060.19;5031967;28;20061;-72
2023/12/19 05:57:11;;;;;;;69.13;65.00;;;;;;;8.60;68.67;102049.63;5032618;28;20038;-70
2023/12/19 05:59:36;;;;;;;66.20;62.78;;;;;;;8.61;68.73;102052.13;5013367;28;20469;-71
2023/12/19 06:02:02;;;;;;;62.78;59.28;;;;;;;8.62;68.51;102051.09;5015236;28;20496;-70
2023/12/19 06:04:27;;;;;;;66.47;63.05;;;;;;;8.63;68.68;102065.41;5024730;28;20473;-70
2023/12/19 06:06:52;;;;;;;64.70;61.30;;;;;;;8.63;68.47;102060.00;5012911;28;20041;-69
2023/12/19 06:09:18;;;;;;;63.72;60.45;;;;;;;8.64;68.57;102051.75;5012905;28;20034;-70
2023/12/19 06:11:43;;;;;;;68.50;64.35;;;;;;;8.64;68.48;102045.50;5027009;28;20112;-70
2023/12/19 06:14:09;;;;;;;58.92;55.88;;;;;;;8.64;68.40;102040.13;5028780;28;20033;-71
2023/12/19 06:16:34;;;;;;;63.10;59.75;;;;;;;8.66;68.50;102048.84;5015639;28;20037;-71
2023/12/19 06:19:00;;;;;;;65.60;62.08;;;;;;;8.68;68.52;102048.66;5013802;28;20518;-71
2023/12/19 06:21:25;;;;;;;66.85;63.15;;;;;;;8.67;68.57;102042.44;5021774;28;20115;-71
2023/12/19 06:23:51;;;;;;;66.90;63.38;;;;;;;8.67;68.40;102045.13;5026922;28;20556;-70
2023/12/19 06:26:16;;;;;;;62.25;59.13;;;;;;;8.69;68.51;102039.53;5012284;28;20033;-72
2023/12/19 06:28:42;;;;;;;65.82;62.42;;;;;;;8.70;68.58;102041.22;5028106;28;20132;-69
2023/12/19 06:31:07;;;;;;;61.25;58.10;;;;;;;8.70;68.69;102039.34;5021552;28;20044;-70
2023/12/19 06:33:33;;;;;;;68.47;64.85;;;;;;;8.71;68.45;102037.47;5031853;28;20087;-71
2023/12/19 06:35:58;;;;;;;66.18;62.35;;;;;;;8.71;68.57;102026.69;5024872;28;20121;-70
2023/12/19 06:38:23;;;;;;;68.03;64.30;;;;;;;8.70;68.55;102025.03;5031476;28;20124;-71
2023/12/19 06:40:49;;;;;;;64.28;60.80;;;;;;;8.70;68.42;102036.66;5021531;28;20112;-73
2023/12/19 06:43:14;;;;;;;64.78;61.17;;;;;;;8.72;68.52;102031.03;5028011;28;20596;-70
2023/12/19 06:45:40;;;;;;;65.45;61.65;;;;;;;8.74;68.57;102037.91;5018686;28;20026;-70
2023/12/19 06:48:05;;;;;;;68.15;64.38;;;;;;;8.76;68.42;102027.75;5017167;28;20465;-70
2023/12/19 06:50:31;;;;;;;64.70;61.55;;;;;;;8.76;68.48;102024.25;5031237;28;20030;-70
2023/12/19 06:52:56;;;;;;;67.63;64.05;;;;;;;8.76;68.57;102021.53;5028595;28;20060;-73
2023/12/19 06:55:22;;;;;;;68.75;64.97;;;;;;;8.77;68.73;102012.41;5024697;28;20060;-68
2023/12/19 06:57:47;;;;;;;70.43;66.50;;;;;;;8.78;68.52;102017.63;5017663;28;20504;-78
2023/12/19 07:00:15;;;;;;;65.40;61.90;;;;;;;8.77;68.70;102004.34;5028854;28;20049;-70
2023/12/19 07:02:41;;;;;;;65.03;61.85;;;;;;;8.77;68.66;102012.41;5024729;28;20413;-71
2023/12/19 07:05:07;;;;;;;66.57;63.35;;;;;;;8.79;68.65;102008.50;5026904;28;20080;-70
2023/12/19 07:07:33;;;;;;;69.93;66.43;;;;;;;8.80;68.42;102010.19;5018032;28;20030;-71
2023/12/19 07:09:58;;;;;;;66.60;63.28;;;;;;;8.79;68.56;102007.66;5029485;28;20033;-70
2023/12/19 07:12:23;;;;;;;66.30;63.00;;;;;;;8.78;68.49;102000.63;5017888;28;20065;-71
2023/12/19 07:14:49;;;;;;;71.90;67.85;;;;;;;8.77;68.80;101996.25;5025134;28;20076;-70
2023/12/19 07:17:14;;;;;;;73.18;69.32;;;;;;;8.76;68.52;101998.13;5012210;28;20089;-70
2023/12/19 07:19:40;;;;;;;66.53;63.20;;;;;;;8.76;68.64;101989.22;5018385;28;20116;-71
2023/12/19 07:22:06;;;;;;;65.15;61.90;;;;;;;8.75;68.72;102001.84;5012626;28;20029;-70
2023/12/19 07:24:32;;;;;;;68.82;65.00;;;;;;;8.74;68.86;101991.28;5013307;28;20053;-70
2023/12/19 07:26:58;;;;;;;66.90;63.13;;;;;;;8.73;68.77;101993.13;5017282;28;20124;-71
2023/12/19 07:29:23;;;;;;;64.30;60.97;;;;;;;8.69;69.18;101989.16;5032208;28;20053;-70
2023/12/19 07:31:50;;;;;;;68.60;64.88;;;;;;;8.69;69.00;101997.25;5022955;28;20033;-69
2023/12/19 07:34:15;;;;;;;66.15;62.55;;;;;;;8.72;69.13;101998.72;5018823;28;20036;-69
2023/12/19 07:36:41;;;;;;;71.38;66.47;;;;;;;8.73;68.86;102006.59;5033703;28;20037;-73
2023/12/19 07:39:07;;;;;;;67.80;64.25;;;;;;;8.72;68.96;101990.63;5040770;28;20072;-70
2023/12/19 07:41:32;;;;;;;64.97;61.58;;;;;;;8.76;68.73;101989.22;5018169;28;20036;-71
2023/12/19 07:43:58;;;;;;;64.82;61.35;;;;;;;8.77;68.90;101993.56;5011631;28;20121;-70
2023/12/19 07:46:24;;;;;;;67.75;63.97;;;;;;;8.78;68.86;101979.91;5014763;28;20026;-70
2023/12/19 07:48:50;;;;;;;73.00;69.20;;;;;;;8.77;68.73;101983.63;5026604;28;20036;-71
2023/12/19 07:51:20;;;;;;;69.78;66.47;;;;;;;8.78;68.90;101979.06;5030339;28;20427;-70
2023/12/19 07:53:46;;;;;;;67.78;64.25;;;;;;;8.79;68.78;101978.03;5030412;28;20109;-70
2023/12/19 07:56:11;;;;;;;71.80;67.97;;;;;;;8.77;68.81;101972.88;5030422;28;20120;-69
2023/12/19 07:58:37;;;;;;;73.05;69.18;;;;;;;8.77;68.95;101975.56;5016756;28;20046;-71
2023/12/19 08:01:02;;;;;;;63.75;60.58;;;;;;;8.79;68.88;101968.06;5030062;28;20029;-70
2023/12/19 08:03:29;;;;;;;67.72;64.47;;;;;;;8.80;69.08;101958.97;5030656;28;20394;-70
2023/12/19 08:05:56;;;;;;;65.43;61.58;;;;;;;8.80;68.82;101964.38;5019892;28;20038;-70
2023/12/19 08:08:25;;;;;;;68.72;65.38;;;;;;;8.81;68.87;101973.28;5030187;28;20029;-73
2023/12/19 08:10:51;;;;;;;65.47;61.80;;;;;;;8.82;69.04;101973.09;5021526;28;20045;-70
2023/12/19 08:13:19;;;;;;;63.58;60.50;;;;;;;8.83;68.83;101990.09;5011954;28;20026;-70
2023/12/19 08:15:45;;;;;;;75.07;70.70;;;;;;;8.84;68.81;101967.47;5014380;28;22089;-72
2023/12/19 08:18:11;;;;;;;67.05;63.75;;;;;;;8.82;68.78;101950.69;5019990;28;20036;-71
2023/12/19 08:20:36;;;;;;;67.72;64.60;;;;;;;8.85;68.98;101958.38;5026689;28;20253;-70
2023/12/19 08:23:02;;;;;;;67.50;64.10;;;;;;;8.86;68.71;101957.34;5026006;28;20092;-71
2023/12/19 08:25:28;;;;;;;60.05;57.05;;;;;;;8.86;68.85;101978.91;5030546;28;20041;-71
2023/12/19 08:27:54;;;;;;;68.07;64.43;;;;;;;8.86;68.88;101970.81;5015887;28;20054;-70
2023/12/19 08:30:19;;;;;;;76.13;72.35;;;;;;;8.90;68.89;101971.25;5030369;28;20025;-70
2023/12/19 08:32:45;;;;;;;63.05;60.08;;;;;;;8.90;68.87;101972.09;5028389;28;20064;-70
2023/12/19 08:35:10;;;;;;;71.00;67.22;;;;;;;8.91;68.90;101962.97;5021417;28;20068;-71
2023/12/19 08:37:36;;;;;;;65.32;62.28;;;;;;;8.91;68.78;101973.72;5024928;28;20443;-70
2023/12/19 08:40:03;;;;;;;62.70;59.70;;;;;;;8.92;68.86;101978.09;5021221;28;20034;-71
2023/12/19 08:42:29;;;;;;;64.93;61.72;;;;;;;8.91;68.68;101971.03;5027444;28;20065;-69
2023/12/19 08:44:57;;;;;;;67.50;64.22;;;;;;;8.92;68.65;101959.25;5027493;28;20064;-69
2023/12/19 08:47:23;;;;;;;67.30;63.85;;;;;;;8.93;68.71;101950.13;5011582;28;20041;-69
2023/12/19 08:49:52;;;;;;;67.60;64.35;;;;;;;8.93;68.93;101955.50;5010982;28;20030;-70
2023/12/19 08:52:18;;;;;;;67.65;64.30;;;;;;;8.95;68.74;101948.06;5027169;28;20042;-70
2023/12/19 08:54:43;;;;;;;67.93;64.50;;;;;;;8.92;68.88;101948.47;5020788;28;20458;-69
2023/12/19 08:57:09;;;;;;;66.95;63.55;;;;;;;8.91;68.93;101954.88;5010861;28;20538;-70
2023/12/19 08:59:34;;;;;;;69.72;66.32;;;;;;;8.92;69.03;101953.00;5012378;28;20120;-71
2023/12/19 09:01:59;;;;;;;66.70;63.28;;;;;;;8.90;69.05;101941.63;5026011;28;20029;-70
2023/12/19 09:04:25;;;;;;;68.55;65.28;;;;;;;8.90;69.15;101941.63;5010879;28;20470;-69
2023/12/19 09:06:50;;;;;;;71.63;67.75;;;;;;;8.91;68.87;101929.78;5020894;28;20095;-71
2023/12/19 09:09:16;;;;;;;72.35;68.07;;;;;;;8.92;68.76;101936.84;5020362;28;20029;-69
2023/12/19 09:11:42;;;;;;;65.13;61.92;;;;;;;8.92;69.13;101920.66;5019351;28;20029;-70
2023/12/19 09:14:11;;;;;;;65.68;62.47;;;;;;;8.91;69.16;101929.78;5017796;28;20034;-70
2023/12/19 09:16:37;;;;;;;67.20;64.03;;;;;;;8.90;69.23;101931.66;5032725;28;20044;-69
2023/12/19 09:19:02;;;;;;;73.28;68.82;;;;;;;8.90;69.01;101928.16;5020602;28;20034;-70
2023/12/19 09:21:27;;;;;;;66.97;63.42;;;;;;;8.92;69.28;101931.44;5013561;28;20045;-70
2023/12/19 09:23:53;;;;;;;69.95;65.65;;;;;;;8.91;69.39;101921.72;5027278;28;20052;-69
2023/12/19 09:26:19;;;;;;;68.85;65.45;;;;;;;8.93;68.98;101925.03;5014389;28;20047;-70
2023/12/19 09:28:45;;;;;;;62.72;59.75;;;;;;;8.92;69.13;101916.13;5026905;28;20049;-70
2023/12/19 09:31:11;;;;;;;65.50;62.33;;;;;;;8.92;69.30;101929.59;5012822;28;20073;-69
2023/12/19 09:33:38;;;;;;;63.97;60.88;;;;;;;8.92;69.59;101921.53;5026917;28;20481;-72
2023/12/19 09:36:09;;;;;;;70.72;67.30;;;;;;;8.94;69.42;101918.59;5017885;28;20041;-71
2023/12/19 09:38:37;;;;;;;65.70;62.30;;;;;;;8.96;69.49;101919.25;5026249;28;20030;-70
2023/12/19 09:41:03;;;;;;;69.18;65.68;;;;;;;8.94;69.42;101919.44;5024604;28;20084;-71
2023/12/19 09:43:33;;;;;;;63.97;60.88;;;;;;;8.96;69.57;101908.47;5009228;28;20044;-70
2023/12/19 09:46:02;;;;;;;71.85;68.25;;;;;;;8.94;69.39;101903.25;5012408;28;20056;-72
2023/12/19 09:48:32;;;;;;;67.97;64.68;;;;;;;8.97;69.13;101893.94;5020280;28;20037;-70
2023/12/19 09:51:02;;;;;;;70.15;66.72;;;;;;;8.97;69.37;101896.63;5012178;28;20116;-71
2023/12/19 09:53:30;;;;;;;69.40;65.90;;;;;;;8.96;69.71;101894.97;5015509;28;20033;-70
2023/12/19 09:55:56;;;;;;;69.72;66.13;;;;;;;8.96;69.61;101890.41;5029773;28;20129;-70
2023/12/19 09:58:23;;;;;;;63.60;60.67;;;;;;;8.98;69.65;101882.16;5018991;28;20034;-71
2023/12/19 10:00:51;;;;;;;68.43;65.13;;;;;;;8.97;69.71;101878.63;5012408;28;20038;-70
2023/12/19 10:03:16;;;;;;;65.75;61.97;;;;;;;8.98;69.69;101882.16;5011971;28;20109;-70
2023/12/19 10:05:44;;;;;;;71.80;68.35;;;;;;;8.97;69.82;101885.84;5028680;28;20449;-70
2023/12/19 10:08:10;;;;;;;68.60;64.53;;;;;;;8.97;69.81;101878.63;5030558;28;20065;-70
2023/12/19 10:10:55;;;;;;;69.43;66.10;;;;;;;8.97;69.69;101881.31;5030517;28;20120;-69
2023/12/19 10:13:33;;;;;;;65.68;62.40;;;;;;;8.95;69.74;101879.88;5014156;28;20079;-70
2023/12/19 10:16:03;;;;;;;67.53;64.10;;;;;;;8.94;69.81;101881.69;5031843;28;20048;-70
2023/12/19 10:18:28;;;;;;;66.90;63.67;;;;;;;8.97;69.67;101878.63;5019563;28;20033;-70
2023/12/19 10:21:09;;;;;;;65.70;62.67;;;;;;;8.97;69.82;101867.84;5038753;28;20424;-71
2023/12/19 10:23:38;;;;;;;67.10;63.92;;;;;;;8.96;69.86;101858.09;5023977;28;20057;-70
2023/12/19 10:26:05;;;;;;;68.22;64.72;;;;;;;8.94;69.81;101852.06;5023993;28;20044;-71
2023/12/19 10:28:34;;;;;;;65.60;62.50;;;;;;;8.95;69.85;101848.34;5014470;28;20050;-73
2023/12/19 10:31:05;;;;;;;65.00;61.85;;;;;;;8.97;69.87;101848.97;5036866;28;20037;-71
2023/12/19 10:33:39;;;;;;;65.78;62.58;;;;;;;8.98;69.88;101842.53;5019753;28;20025;-71
2023/12/19 10:36:05;;;;;;;74.05;70.45;;;;;;;8.97;69.76;101850.81;5014315;28;20112;-71
2023/12/19 10:38:44;;;;;;;68.43;64.88;;;;;;;8.97;70.08;101848.13;5011522;28;20083;-72
2023/12/19 10:41:10;;;;;;;67.38;64.07;;;;;;;8.98;69.85;101836.34;5024958;28;20032;-69
2023/12/19 10:43:38;;;;;;;71.82;68.28;;;;;;;8.97;69.95;101840.91;5011664;28;20046;-70
2023/12/19 10:46:05;;;;;;;66.38;63.05;;;;;;;8.98;69.85;101828.25;5011315;28;20482;-70
2023/12/19 10:48:30;;;;;;;68.38;64.72;;;;;;;8.99;69.94;101819.13;5030203;28;20040;-73
2023/12/19 10:50:57;;;;;;;66.85;63.75;;;;;;;9.00;69.90;101810.00;5028793;28;20038;-71
2023/12/19 10:53:23;;;;;;;65.72;62.53;;;;;;;9.00;70.11;101801.94;5028745;28;20064;-71
2023/12/19 10:55:51;;;;;;;67.25;63.97;;;;;;;9.00;69.92;101791.16;5030735;28;20037;-70
2023/12/19 10:58:20;;;;;;;66.93;63.75;;;;;;;9.01;69.79;101788.22;5029382;28;20091;-71
2023/12/19 11:00:50;;;;;;;71.65;67.85;;;;;;;9.03;69.99;101786.16;5026610;28;20033;-70
2023/12/19 11:03:40;;;;;;;70.78;66.90;;;;;;;9.00;70.06;101778.50;5029012;28;20112;-71
2023/12/19 11:06:12;;;;;;;67.18;63.78;;;;;;;9.00;69.90;101775.81;5023861;28;20037;-71
2023/12/19 11:08:40;;;;;;;66.97;63.67;;;;;;;9.02;69.76;101762.09;5028984;28;20673;-70
2023/12/19 11:11:36;;;;;;;69.70;66.13;;;;;;;9.02;70.04;101756.72;5029580;28;20103;-71
2023/12/19 11:14:02;;;;;;;66.22;63.20;;;;;;;9.02;70.24;101759.41;5023365;28;20033;-71